sensor_id;sensor_type;location;lat;lon;timestamp;pressure;altitude;pressure_sealevel;temperature;humidity
8627;BME280;4351;51.422;6.794;2023-02-16T00:01:25;102298.09;;;5.84;100.00
8627;BME280;4351;51.422;6.794;2023-02-16T00:03:54;102303.41;;;5.89;100.00
8627;BME280;4351;51.422;6.794;2023-02-16T00:06:23;102304.47;;;5.77;100.00
8627;BME280;4351;51.422;6.794;2023-02-16T00:08:53;102298.44;;;5.62;100.00
8627;BME280;4351;51.422;6.794;2023-02-16T00:11:25;102309.78;;;5.80;100.00
8627;BME280;4351;51.422;6.794;2023-02-16T00:14:13;102304.38;;;5.82;100.00
8627;BME280;4351;51.422;6.794;2023-02-16T00:16:42;102304.56;;;5.72;100.00
8627;BME280;4351;51.422;6.794;2023-02-16T00:19:16;102301.00;;;5.69;100.00
8627;BME280;4351;51.422;6.794;2023-02-16T00:21:46;102294.16;;;5.50;100.00
8627;BME280;4351;51.422;6.794;2023-02-16T00:24:14;102290.31;;;5.69;100.00
8627;BME280;4351;51.422;6.794;2023-02-16T00:26:43;102293.91;;;5.68;100.00
8627;BME280;4351;51.422;6.794;2023-02-16T00:29:16;102291.38;;;5.55;100.00
8627;BME280;4351;51.422;6.794;2023-02-16T00:31:46;102296.75;;;5.55;100.00
8627;BME280;4351;51.422;6.794;2023-02-16T00:34:25;102289.63;;;5.54;100.00
8627;BME280;4351;51.422;6.794;2023-02-16T00:36:55;102291.72;;;5.32;100.00
8627;BME280;4351;51.422;6.794;2023-02-16T00:39:23;102295.19;;;5.38;100.00
8627;BME280;4351;51.422;6.794;2023-02-16T00:41:52;102292.50;;;5.40;100.00
8627;BME280;4351;51.422;6.794;2023-02-16T00:44:28;102293.34;;;5.44;100.00
8627;BME280;4351;51.422;6.794;2023-02-16T00:47:02;102291.63;;;5.39;100.00
8627;BME280;4351;51.422;6.794;2023-02-16T00:49:31;102289.75;;;5.45;100.00
8627;BME280;4351;51.422;6.794;2023-02-16T00:51:59;102286.22;;;5.43;100.00
8627;BME280;4351;51.422;6.794;2023-02-16T00:54:26;102274.75;;;5.34;100.00
8627;BME280;4351;51.422;6.794;2023-02-16T00:56:57;102287.53;;;5.10;100.00
8627;BME280;4351;51.422;6.794;2023-02-16T00:59:26;102292.84;;;5.15;100.00
8627;BME280;4351;51.422;6.794;2023-02-16T01:01:54;102284.78;;;5.16;100.00
8627;BME280;4351;51.422;6.794;2023-02-16T01:04:24;102287.28;;;5.29;100.00
8627;BME280;4351;51.422;6.794;2023-02-16T01:06:52;102287.28;;;5.29;100.00
8627;BME280;4351;51.422;6.794;2023-02-16T01:09:37;102282.94;;;5.22;100.00
8627;BME280;4351;51.422;6.794;2023-02-16T01:12:23;102288.28;;;5.22;100.00
8627;BME280;4351;51.422;6.794;2023-02-16T01:14:52;102291.06;;;5.15;100.00
8627;BME280;4351;51.422;6.794;2023-02-16T01:17:22;102283.13;;;5.06;100.00
8627;BME280;4351;51.422;6.794;2023-02-16T01:19:55;102278.88;;;4.91;100.00
8627;BME280;4351;51.422;6.794;2023-02-16T01:22:23;102278.81;;;4.94;100.00
8627;BME280;4351;51.422;6.794;2023-02-16T01:24:52;102285.88;;;5.01;100.00
8627;BME280;4351;51.422;6.794;2023-02-16T01:27:20;102282.34;;;4.96;100.00
8627;BME280;4351;51.422;6.794;2023-02-16T01:29:48;102286.75;;;5.02;100.00
8627;BME280;4351;51.422;6.794;2023-02-16T01:32:16;102280.50;;;5.04;100.00
8627;BME280;4351;51.422;6.794;2023-02-16T01:34:44;102283.31;;;4.93;100.00
8627;BME280;4351;51.422;6.794;2023-02-16T01:37:15;102276.94;;;5.01;100.00
8627;BME280;4351;51.422;6.794;2023-02-16T01:39:44;102283.09;;;5.09;100.00
8627;BME280;4351;51.422;6.794;2023-02-16T01:42:28;102276.88;;;5.07;100.00
8627;BME280;4351;51.422;6.794;2023-02-16T01:45:03;102262.50;;;5.14;100.00
8627;BME280;4351;51.422;6.794;2023-02-16T01:47:36;102270.84;;;4.89;100.00
8627;BME280;4351;51.422;6.794;2023-02-16T01:50:15;102280.66;;;4.90;100.00
8627;BME280;4351;51.422;6.794;2023-02-16T01:52:51;102283.28;;;4.92;100.00
8627;BME280;4351;51.422;6.794;2023-02-16T01:55:23;102280.66;;;4.90;100.00
8627;BME280;4351;51.422;6.794;2023-02-16T01:57:55;102282.16;;;5.12;100.00
8627;BME280;4351;51.422;6.794;2023-02-16T02:00:28;102280.56;;;4.97;100.00
8627;BME280;4351;51.422;6.794;2023-02-16T02:02:58;102275.63;;;4.62;100.00
8627;BME280;4351;51.422;6.794;2023-02-16T02:05:42;102278.06;;;4.81;100.00
8627;BME280;4351;51.422;6.794;2023-02-16T02:08:20;102273.06;;;4.51;100.00
8627;BME280;4351;51.422;6.794;2023-02-16T02:11:06;102271.16;;;4.61;100.00
8627;BME280;4351;51.422;6.794;2023-02-16T02:13:40;102269.25;;;4.72;100.00
8627;BME280;4351;51.422;6.794;2023-02-16T02:16:09;102270.22;;;4.67;100.00
8627;BME280;4351;51.422;6.794;2023-02-16T02:18:37;102265.72;;;4.70;100.00
8627;BME280;4351;51.422;6.794;2023-02-16T02:21:15;102268.38;;;4.72;100.00
8627;BME280;4351;51.422;6.794;2023-02-16T02:27:17;102261.34;;;4.62;100.00
8627;BME280;4351;51.422;6.794;2023-02-16T02:29:58;102260.53;;;4.58;100.00
8627;BME280;4351;51.422;6.794;2023-02-16T02:32:42;102260.50;;;4.56;100.00
8627;BME280;4351;51.422;6.794;2023-02-16T02:35:25;102258.69;;;4.62;100.00
8627;BME280;4351;51.422;6.794;2023-02-16T02:38:00;102260.59;;;4.52;100.00
8627;BME280;4351;51.422;6.794;2023-02-16T02:40:40;102250.72;;;4.58;100.00
8627;BME280;4351;51.422;6.794;2023-02-16T02:43:19;102242.75;;;4.51;100.00
8627;BME280;4351;51.422;6.794;2023-02-16T02:45:52;102246.28;;;4.54;100.00
8627;BME280;4351;51.422;6.794;2023-02-16T02:48:36;102249.84;;;4.55;100.00
8627;BME280;4351;51.422;6.794;2023-02-16T02:51:09;102233.81;;;4.55;100.00
8627;BME280;4351;51.422;6.794;2023-02-16T02:54:00;102223.84;;;4.69;100.00
8627;BME280;4351;51.422;6.794;2023-02-16T02:56:52;102220.38;;;4.63;100.00
8627;BME280;4351;51.422;6.794;2023-02-16T02:59:46;102228.47;;;4.53;100.00
8627;BME280;4351;51.422;6.794;2023-02-16T03:02:35;102227.75;;;4.37;100.00
8627;BME280;4351;51.422;6.794;2023-02-16T03:05:07;102221.19;;;4.69;100.00
8627;BME280;4351;51.422;6.794;2023-02-16T03:07:37;102215.69;;;4.80;100.00
8627;BME280;4351;51.422;6.794;2023-02-16T03:10:18;102220.38;;;4.63;100.00
8627;BME280;4351;51.422;6.794;2023-02-16T03:13:09;102214.19;;;4.54;100.00
8627;BME280;4351;51.422;6.794;2023-02-16T03:15:40;102217.66;;;4.64;100.00
8627;BME280;4351;51.422;6.794;2023-02-16T03:18:11;102214.09;;;4.64;100.00
8627;BME280;4351;51.422;6.794;2023-02-16T03:20:59;102216.66;;;4.75;100.00
8627;BME280;4351;51.422;6.794;2023-02-16T03:23:47;102210.59;;;4.60;100.00
8627;BME280;4351;51.422;6.794;2023-02-16T03:26:36;102206.78;;;4.78;100.00
8627;BME280;4351;51.422;6.794;2023-02-16T03:29:22;102199.78;;;4.69;100.00
8627;BME280;4351;51.422;6.794;2023-02-16T03:31:54;102195.38;;;4.67;100.00
8627;BME280;4351;51.422;6.794;2023-02-16T03:34:23;102201.66;;;4.61;100.00
8627;BME280;4351;51.422;6.794;2023-02-16T03:36:54;102200.66;;;4.70;100.00
8627;BME280;4351;51.422;6.794;2023-02-16T03:39:27;102197.38;;;4.47;100.00
8627;BME280;4351;51.422;6.794;2023-02-16T03:41:56;102210.75;;;4.47;100.00
8627;BME280;4351;51.422;6.794;2023-02-16T03:44:24;102216.00;;;4.52;100.00
8627;BME280;4351;51.422;6.794;2023-02-16T03:46:54;102207.34;;;4.31;100.00
8627;BME280;4351;51.422;6.794;2023-02-16T03:49:22;102213.56;;;4.32;100.00
8627;BME280;4351;51.422;6.794;2023-02-16T03:51:50;102211.66;;;4.45;100.00
8627;BME280;4351;51.422;6.794;2023-02-16T03:54:18;102214.38;;;4.37;100.00
8627;BME280;4351;51.422;6.794;2023-02-16T03:56:46;102226.78;;;4.44;100.00
8627;BME280;4351;51.422;6.794;2023-02-16T03:59:14;102218.50;;;4.68;100.00
8627;BME280;4351;51.422;6.794;2023-02-16T04:01:43;102223.09;;;4.58;100.00
8627;BME280;4351;51.422;6.794;2023-02-16T04:04:12;102206.97;;;4.64;100.00
8627;BME280;4351;51.422;6.794;2023-02-16T04:06:41;102209.03;;;4.40;100.00
8627;BME280;4351;51.422;6.794;2023-02-16T04:09:09;102198.28;;;4.43;100.00
8627;BME280;4351;51.422;6.794;2023-02-16T04:11:37;102200.94;;;4.46;100.00
8627;BME280;4351;51.422;6.794;2023-02-16T04:14:23;102203.69;;;4.40;100.00
8627;BME280;4351;51.422;6.794;2023-02-16T04:16:51;102200.94;;;4.43;100.00
8627;BME280;4351;51.422;6.794;2023-02-16T04:19:23;102209.03;;;4.40;100.00
8627;BME280;4351;51.422;6.794;2023-02-16T04:21:51;102221.44;;;4.44;100.00
8627;BME280;4351;51.422;6.794;2023-02-16T04:24:19;102209.78;;;4.53;100.00
8627;BME280;4351;51.422;6.794;2023-02-16T04:26:47;102209.81;;;4.48;100.00
8627;BME280;4351;51.422;6.794;2023-02-16T04:29:15;102209.81;;;4.48;100.00
8627;BME280;4351;51.422;6.794;2023-02-16T04:31:43;102198.19;;;4.53;100.00
8627;BME280;4351;51.422;6.794;2023-02-16T04:34:12;102204.28;;;4.66;100.00
8627;BME280;4351;51.422;6.794;2023-02-16T04:36:41;102213.47;;;4.43;100.00
8627;BME280;4351;51.422;6.794;2023-02-16T04:39:10;102212.44;;;4.53;100.00
8627;BME280;4351;51.422;6.794;2023-02-16T04:41:38;102211.69;;;4.40;100.00
8627;BME280;4351;51.422;6.794;2023-02-16T04:44:06;102217.84;;;4.45;100.00
8627;BME280;4351;51.422;6.794;2023-02-16T04:46:34;102222.34;;;4.45;100.00
8627;BME280;4351;51.422;6.794;2023-02-16T04:49:02;102214.25;;;4.51;100.00
8627;BME280;4351;51.422;6.794;2023-02-16T04:51:30;102214.28;;;4.46;100.00
8627;BME280;4351;51.422;6.794;2023-02-16T04:54:00;102211.75;;;4.32;100.00
8627;BME280;4351;51.422;6.794;2023-02-16T04:56:28;102198.50;;;4.24;100.00
8627;BME280;4351;51.422;6.794;2023-02-16T04:58:56;102212.66;;;4.33;100.00
8627;BME280;4351;51.422;6.794;2023-02-16T05:01:25;102209.91;;;4.41;100.00
8627;BME280;4351;51.422;6.794;2023-02-16T05:03:55;102207.13;;;4.52;100.00
8627;BME280;4351;51.422;6.794;2023-02-16T05:06:23;102212.56;;;4.42;100.00
8627;BME280;4351;51.422;6.794;2023-02-16T05:08:51;102209.97;;;4.36;100.00
8627;BME280;4351;51.422;6.794;2023-02-16T05:11:20;102210.75;;;4.44;100.00
8627;BME280;4351;51.422;6.794;2023-02-16T05:14:06;102201.91;;;4.39;100.00
8627;BME280;4351;51.422;6.794;2023-02-16T05:16:51;102199.91;;;4.57;100.00
8627;BME280;4351;51.422;6.794;2023-02-16T05:19:19;102201.69;;;4.59;100.00
8627;BME280;4351;51.422;6.794;2023-02-16T05:21:48;102204.31;;;4.61;100.00
8627;BME280;4351;51.422;6.794;2023-02-16T05:24:16;102201.53;;;4.70;100.00
8627;BME280;4351;51.422;6.794;2023-02-16T05:26:45;102204.56;;;4.41;100.00
8627;BME280;4351;51.422;6.794;2023-02-16T05:29:15;102206.34;;;4.40;100.00
8627;BME280;4351;51.422;6.794;2023-02-16T05:31:44;102204.56;;;4.39;100.00
8627;BME280;4351;51.422;6.794;2023-02-16T05:34:12;102205.41;;;4.47;100.00
8627;BME280;4351;51.422;6.794;2023-02-16T05:36:40;102213.44;;;4.44;100.00
8627;BME280;4351;51.422;6.794;2023-02-16T05:39:08;102212.59;;;4.39;100.00
8627;BME280;4351;51.422;6.794;2023-02-16T05:41:37;102218.91;;;4.33;100.00
8627;BME280;4351;51.422;6.794;2023-02-16T05:44:07;102220.47;;;4.53;100.00
8627;BME280;4351;51.422;6.794;2023-02-16T05:46:37;102225.00;;;4.46;100.00
8627;BME280;4351;51.422;6.794;2023-02-16T05:49:07;102208.00;;;4.54;100.00
8627;BME280;4351;51.422;6.794;2023-02-16T05:51:36;102203.53;;;4.53;100.00
8627;BME280;4351;51.422;6.794;2023-02-16T05:54:04;102212.34;;;4.61;100.00
8627;BME280;4351;51.422;6.794;2023-02-16T05:56:33;102201.69;;;4.58;100.00
8627;BME280;4351;51.422;6.794;2023-02-16T05:59:01;102210.59;;;4.57;100.00
8627;BME280;4351;51.422;6.794;2023-02-16T06:01:30;102209.69;;;4.63;100.00
8627;BME280;4351;51.422;6.794;2023-02-16T06:03:59;102199.84;;;4.65;100.00
8627;BME280;4351;51.422;6.794;2023-02-16T06:06:27;102207.94;;;4.58;100.00
8627;BME280;4351;51.422;6.794;2023-02-16T06:08:55;102202.38;;;4.74;100.00
8627;BME280;4351;51.422;6.794;2023-02-16T06:11:23;102200.56;;;4.76;100.00
8627;BME280;4351;51.422;6.794;2023-02-16T06:14:05;102203.31;;;4.70;100.00
8627;BME280;4351;51.422;6.794;2023-02-16T06:16:37;102196.97;;;4.80;100.00
8627;BME280;4351;51.422;6.794;2023-02-16T06:19:05;102193.59;;;4.64;100.00
8627;BME280;4351;51.422;6.794;2023-02-16T06:21:34;102205.19;;;4.63;100.00
8627;BME280;4351;51.422;6.794;2023-02-16T06:24:03;102204.97;;;4.82;100.00
8627;BME280;4351;51.422;6.794;2023-02-16T06:26:31;102205.88;;;4.81;100.00
8627;BME280;4351;51.422;6.794;2023-02-16T06:28:59;102195.03;;;4.92;100.00
8627;BME280;4351;51.422;6.794;2023-02-16T06:31:27;102189.94;;;4.73;100.00
8627;BME280;4351;51.422;6.794;2023-02-16T06:33:57;102190.75;;;4.80;100.00
8627;BME280;4351;51.422;6.794;2023-02-16T06:36:26;102191.63;;;4.80;100.00
8627;BME280;4351;51.422;6.794;2023-02-16T06:38:54;102188.88;;;4.85;100.00
8627;BME280;4351;51.422;6.794;2023-02-16T06:41:22;102187.03;;;4.90;100.00
8627;BME280;4351;51.422;6.794;2023-02-16T06:44:05;102187.72;;;5.05;100.00
8627;BME280;4351;51.422;6.794;2023-02-16T06:46:34;102194.88;;;5.03;100.00
8627;BME280;4351;51.422;6.794;2023-02-16T06:49:03;102194.94;;;5.00;100.00
8627;BME280;4351;51.422;6.794;2023-02-16T06:51:32;102205.44;;;5.14;100.00
8627;BME280;4351;51.422;6.794;2023-02-16T06:54:00;102204.44;;;5.21;100.00
8627;BME280;4351;51.422;6.794;2023-02-16T06:56:28;102201.19;;;4.99;100.00
8627;BME280;4351;51.422;6.794;2023-02-16T06:58:56;102201.94;;;5.07;100.00
8627;BME280;4351;51.422;6.794;2023-02-16T07:01:24;102192.97;;;5.11;100.00
8627;BME280;4351;51.422;6.794;2023-02-16T07:03:53;102188.72;;;4.98;100.00
8627;BME280;4351;51.422;6.794;2023-02-16T07:06:25;102193.91;;;5.10;100.00
8627;BME280;4351;51.422;6.794;2023-02-16T07:08:54;102190.16;;;5.22;100.00
8627;BME280;4351;51.422;6.794;2023-02-16T07:11:22;102194.84;;;5.06;100.00
8627;BME280;4351;51.422;6.794;2023-02-16T07:13:50;102192.09;;;5.12;100.00
8627;BME280;4351;51.422;6.794;2023-02-16T07:16:18;102189.97;;;5.33;100.00
8627;BME280;4351;51.422;6.794;2023-02-16T07:18:46;102183.78;;;5.31;100.00
8627;BME280;4351;51.422;6.794;2023-02-16T07:21:15;102183.00;;;5.23;100.00
8627;BME280;4351;51.422;6.794;2023-02-16T07:23:44;102179.34;;;5.30;100.00
8627;BME280;4351;51.422;6.794;2023-02-16T07:26:12;102186.44;;;5.31;100.00
8627;BME280;4351;51.422;6.794;2023-02-16T07:28:40;102178.91;;;5.58;100.00
8627;BME280;4351;51.422;6.794;2023-02-16T07:31:10;102187.00;;;5.54;100.00
8627;BME280;4351;51.422;6.794;2023-02-16T07:33:38;102179.00;;;5.52;100.00
8627;BME280;4351;51.422;6.794;2023-02-16T07:36:08;102189.66;;;5.55;100.00
8627;BME280;4351;51.422;6.794;2023-02-16T07:38:38;102200.34;;;5.55;100.00
8627;BME280;4351;51.422;6.794;2023-02-16T07:41:09;102205.69;;;5.58;100.00
8627;BME280;4351;51.422;6.794;2023-02-16T07:43:38;102196.72;;;5.61;100.00
8627;BME280;4351;51.422;6.794;2023-02-16T07:46:08;102194.97;;;5.58;100.00
8627;BME280;4351;51.422;6.794;2023-02-16T07:48:37;102189.59;;;5.58;100.00
8627;BME280;4351;51.422;6.794;2023-02-16T07:51:05;102200.31;;;5.58;100.00
8627;BME280;4351;51.422;6.794;2023-02-16T07:53:34;102195.78;;;5.63;100.00
8627;BME280;4351;51.422;6.794;2023-02-16T07:56:02;102196.44;;;5.78;100.00
8627;BME280;4351;51.422;6.794;2023-02-16T07:58:32;102199.91;;;5.83;100.00
8627;BME280;4351;51.422;6.794;2023-02-16T08:01:07;102216.66;;;5.96;100.00
8627;BME280;4351;51.422;6.794;2023-02-16T08:03:35;102210.63;;;5.83;100.00
8627;BME280;4351;51.422;6.794;2023-02-16T08:06:04;102206.00;;;5.93;100.00
8627;BME280;4351;51.422;6.794;2023-02-16T08:08:32;102204.81;;;6.12;100.00
8627;BME280;4351;51.422;6.794;2023-02-16T08:11:07;102210.34;;;6.01;100.00
8627;BME280;4351;51.422;6.794;2023-02-16T08:13:37;102218.25;;;6.08;100.00
8627;BME280;4351;51.422;6.794;2023-02-16T08:16:09;102204.84;;;6.08;100.00
8627;BME280;4351;51.422;6.794;2023-02-16T08:18:37;102197.56;;;6.17;100.00
8627;BME280;4351;51.422;6.794;2023-02-16T08:21:09;102214.91;;;5.94;100.00
8627;BME280;4351;51.422;6.794;2023-02-16T08:23:41;102210.34;;;5.99;100.00
8627;BME280;4351;51.422;6.794;2023-02-16T08:26:15;102210.09;;;6.15;100.00
8627;BME280;4351;51.422;6.794;2023-02-16T08:28:47;102212.94;;;6.04;100.00
8627;BME280;4351;51.422;6.794;2023-02-16T08:31:17;102214.75;;;6.03;100.00
8627;BME280;4351;51.422;6.794;2023-02-16T08:33:46;102217.28;;;6.14;100.00
8627;BME280;4351;51.422;6.794;2023-02-16T08:36:18;102220.97;;;6.05;100.00
8627;BME280;4351;51.422;6.794;2023-02-16T08:38:47;102218.22;;;6.10;100.00
8627;BME280;4351;51.422;6.794;2023-02-16T08:41:17;102214.84;;;6.49;100.00
8627;BME280;4351;51.422;6.794;2023-02-16T08:43:47;102217.50;;;6.95;100.00
8627;BME280;4351;51.422;6.794;2023-02-16T08:46:16;102206.78;;;7.33;100.00
8627;BME280;4351;51.422;6.794;2023-02-16T08:48:44;102205.06;;;7.69;100.00
8627;BME280;4351;51.422;6.794;2023-02-16T08:51:13;102203.47;;;7.60;100.00
8627;BME280;4351;51.422;6.794;2023-02-16T08:53:41;102199.63;;;7.72;100.00
8627;BME280;4351;51.422;6.794;2023-02-16T08:56:09;102205.84;;;7.74;100.00
8627;BME280;4351;51.422;6.794;2023-02-16T08:58:38;102199.63;;;7.72;100.00
8627;BME280;4351;51.422;6.794;2023-02-16T09:01:09;102190.72;;;8.05;100.00
8627;BME280;4351;51.422;6.794;2023-02-16T09:03:38;102199.84;;;7.98;100.00
8627;BME280;4351;51.422;6.794;2023-02-16T09:06:09;102196.09;;;8.05;100.00
8627;BME280;4351;51.422;6.794;2023-02-16T09:08:38;102198.19;;;7.93;100.00
8627;BME280;4351;51.422;6.794;2023-02-16T09:11:09;102195.25;;;8.03;100.00
8627;BME280;4351;51.422;6.794;2023-02-16T09:13:38;102203.88;;;7.81;100.00
8627;BME280;4351;51.422;6.794;2023-02-16T09:16:10;102197.34;;;7.91;100.00
8627;BME280;4351;51.422;6.794;2023-02-16T09:18:38;102201.50;;;8.03;100.00
8627;BME280;4351;51.422;6.794;2023-02-16T09:21:09;102202.03;;;8.16;100.00
8627;BME280;4351;51.422;6.794;2023-02-16T09:23:38;102207.03;;;7.97;100.00
8627;BME280;4351;51.422;6.794;2023-02-16T09:26:09;102214.38;;;7.90;100.00
8627;BME280;4351;51.422;6.794;2023-02-16T09:28:39;102226.84;;;8.28;100.00
8627;BME280;4351;51.422;6.794;2023-02-16T09:31:12;102221.88;;;8.12;100.00
8627;BME280;4351;51.422;6.794;2023-02-16T09:33:42;102221.81;;;8.15;100.00
8627;BME280;4351;51.422;6.794;2023-02-16T09:36:11;102226.63;;;8.01;100.00
8627;BME280;4351;51.422;6.794;2023-02-16T09:38:39;102225.66;;;8.05;100.00
8627;BME280;4351;51.422;6.794;2023-02-16T09:41:20;102229.19;;;8.07;100.00
8627;BME280;4351;51.422;6.794;2023-02-16T09:43:54;102228.19;;;8.10;100.00
8627;BME280;4351;51.422;6.794;2023-02-16T09:46:27;102235.34;;;8.11;100.00
8627;BME280;4351;51.422;6.794;2023-02-16T09:48:59;102236.66;;;7.96;100.00
8627;BME280;4351;51.422;6.794;2023-02-16T09:51:32;102240.06;;;8.01;100.00
8627;BME280;4351;51.422;6.794;2023-02-16T09:54:09;102251.72;;;8.01;100.00
8627;BME280;4351;51.422;6.794;2023-02-16T09:56:45;102247.06;;;8.08;100.00
8627;BME280;4351;51.422;6.794;2023-02-16T09:59:24;102263.97;;;8.13;100.00
8627;BME280;4351;51.422;6.794;2023-02-16T10:02:01;102266.38;;;7.89;100.00
8627;BME280;4351;51.422;6.794;2023-02-16T10:04:44;102256.38;;;7.94;100.00
8627;BME280;4351;51.422;6.794;2023-02-16T10:07:27;102259.47;;;7.77;100.00
8627;BME280;4351;51.422;6.794;2023-02-16T10:09:57;102255.63;;;7.89;100.00
8627;BME280;4351;51.422;6.794;2023-02-16T10:12:31;102238.91;;;7.76;100.00
8627;BME280;4351;51.422;6.794;2023-02-16T10:15:05;102235.41;;;7.73;100.00
8627;BME280;4351;51.422;6.794;2023-02-16T10:17:40;102233.19;;;7.90;100.00
8627;BME280;4351;51.422;6.794;2023-02-16T10:20:15;102237.25;;;7.70;100.00
8627;BME280;4351;51.422;6.794;2023-02-16T10:22:48;102240.03;;;7.66;100.00
8627;BME280;4351;51.422;6.794;2023-02-16T10:25:21;102244.56;;;7.64;100.00
8627;BME280;4351;51.422;6.794;2023-02-16T10:27:57;102240.56;;;7.82;100.00
8627;BME280;4351;51.422;6.794;2023-02-16T10:30:29;102248.84;;;7.73;100.00
8627;BME280;4351;51.422;6.794;2023-02-16T10:33:09;102253.38;;;7.70;100.00
8627;BME280;4351;51.422;6.794;2023-02-16T10:35:44;102254.00;;;7.82;100.00
8627;BME280;4351;51.422;6.794;2023-02-16T10:38:16;102253.00;;;7.86;100.00
8627;BME280;4351;51.422;6.794;2023-02-16T10:40:52;102258.31;;;7.89;100.00
8627;BME280;4351;51.422;6.794;2023-02-16T10:43:24;102253.44;;;8.04;100.00
8627;BME280;4351;51.422;6.794;2023-02-16T10:45:59;102257.81;;;8.08;100.00
8627;BME280;4351;51.422;6.794;2023-02-16T10:48:31;102246.75;;;8.21;100.00
8627;BME280;4351;51.422;6.794;2023-02-16T10:51:02;102247.44;;;8.29;100.00
8627;BME280;4351;51.422;6.794;2023-02-16T10:53:38;102251.63;;;8.39;100.00
8627;BME280;4351;51.422;6.794;2023-02-16T10:56:34;102250.38;;;8.53;100.00
8627;BME280;4351;51.422;6.794;2023-02-16T10:59:06;102246.66;;;8.59;100.00
8627;BME280;4351;51.422;6.794;2023-02-16T11:01:36;102238.16;;;8.74;100.00
8627;BME280;4351;51.422;6.794;2023-02-16T11:04:07;102237.91;;;8.82;100.00
8627;BME280;4351;51.422;6.794;2023-02-16T11:06:36;102236.06;;;8.84;100.00
8627;BME280;4351;51.422;6.794;2023-02-16T11:09:04;102229.34;;;9.00;100.00
8627;BME280;4351;51.422;6.794;2023-02-16T11:11:36;102228.94;;;9.14;100.00
8627;BME280;4351;51.422;6.794;2023-02-16T11:14:07;102224.06;;;8.96;100.00
8627;BME280;4351;51.422;6.794;2023-02-16T11:16:45;102227.47;;;9.02;100.00
8627;BME280;4351;51.422;6.794;2023-02-16T11:19:21;102222.72;;;9.12;100.00
8627;BME280;4351;51.422;6.794;2023-02-16T11:21:52;102211.50;;;8.95;100.00
8627;BME280;4351;51.422;6.794;2023-02-16T11:24:26;102196.94;;;9.03;100.00
8627;BME280;4351;51.422;6.794;2023-02-16T11:27:00;102198.19;;;8.91;100.00
8627;BME280;4351;51.422;6.794;2023-02-16T11:29:29;102187.84;;;9.07;100.00
8627;BME280;4351;51.422;6.794;2023-02-16T11:31:58;102197.91;;;9.00;100.00
8627;BME280;4351;51.422;6.794;2023-02-16T11:34:32;102188.94;;;9.01;100.00
8627;BME280;4351;51.422;6.794;2023-02-16T11:37:06;102185.59;;;8.93;100.00
8627;BME280;4351;51.422;6.794;2023-02-16T11:39:47;102187.25;;;8.97;100.00
8627;BME280;4351;51.422;6.794;2023-02-16T11:42:26;102196.44;;;8.90;100.00
8627;BME280;4351;51.422;6.794;2023-02-16T11:44:58;102193.69;;;8.93;100.00
8627;BME280;4351;51.422;6.794;2023-02-16T11:47:29;102201.75;;;8.93;100.00
8627;BME280;4351;51.422;6.794;2023-02-16T11:50:17;102193.38;;;9.02;100.00
8627;BME280;4351;51.422;6.794;2023-02-16T11:52:46;102178.72;;;8.82;100.00
8627;BME280;4351;51.422;6.794;2023-02-16T11:55:22;102184.56;;;8.97;100.00
8627;BME280;4351;51.422;6.794;2023-02-16T11:57:52;102180.84;;;9.01;100.00
8627;BME280;4351;51.422;6.794;2023-02-16T12:00:23;102156.91;;;8.92;100.00
8627;BME280;4351;51.422;6.794;2023-02-16T12:03:08;102153.78;;;9.06;100.00
8627;BME280;4351;51.422;6.794;2023-02-16T12:05:52;102173.59;;;9.03;100.00
8627;BME280;4351;51.422;6.794;2023-02-16T12:08:39;102159.41;;;8.98;100.00
8627;BME280;4351;51.422;6.794;2023-02-16T12:11:21;102161.41;;;8.91;100.00
8627;BME280;4351;51.422;6.794;2023-02-16T12:16:46;102175.66;;;8.95;100.00
8627;BME280;4351;51.422;6.794;2023-02-16T12:19:25;102169.13;;;9.02;100.00
8627;BME280;4351;51.422;6.794;2023-02-16T12:22:04;102179.13;;;8.99;100.00
8627;BME280;4351;51.422;6.794;2023-02-16T12:24:45;102177.56;;;9.20;100.00
8627;BME280;4351;51.422;6.794;2023-02-16T12:27:20;102168.78;;;9.15;100.00
8627;BME280;4351;51.422;6.794;2023-02-16T12:29:53;102168.09;;;9.06;100.00
8627;BME280;4351;51.422;6.794;2023-02-16T12:32:36;102167.13;;;9.38;100.00
8627;BME280;4351;51.422;6.794;2023-02-16T12:35:26;102153.03;;;9.29;100.00
8627;BME280;4351;51.422;6.794;2023-02-16T12:38:02;102164.25;;;9.44;100.00
8627;BME280;4351;51.422;6.794;2023-02-16T12:40:44;102152.34;;;9.51;100.00
8627;BME280;4351;51.422;6.794;2023-02-16T12:43:30;102165.50;;;9.61;100.00
8627;BME280;4351;51.422;6.794;2023-02-16T12:46:02;102164.28;;;9.70;100.00
8627;BME280;4351;51.422;6.794;2023-02-16T12:48:39;102166.59;;;9.81;100.00
8627;BME280;4351;51.422;6.794;2023-02-16T12:51:13;102169.44;;;9.77;100.00
8627;BME280;4351;51.422;6.794;2023-02-16T12:53:53;102165.38;;;9.64;100.00
8627;BME280;4351;51.422;6.794;2023-02-16T12:56:25;102161.13;;;9.84;100.00
8627;BME280;4351;51.422;6.794;2023-02-16T12:59:12;102150.88;;;9.41;100.00
8627;BME280;4351;51.422;6.794;2023-02-16T13:01:45;102162.91;;;9.58;100.00
8627;BME280;4351;51.422;6.794;2023-02-16T13:04:18;102141.75;;;9.72;100.00
8627;BME280;4351;51.422;6.794;2023-02-16T13:06:52;102135.22;;;9.52;100.00
8627;BME280;4351;51.422;6.794;2023-02-16T13:09:33;102135.13;;;9.56;100.00
8627;BME280;4351;51.422;6.794;2023-02-16T13:12:07;102142.69;;;9.71;100.00
8627;BME280;4351;51.422;6.794;2023-02-16T13:14:41;102139.66;;;9.81;100.00
8627;BME280;4351;51.422;6.794;2023-02-16T13:17:14;102126.97;;;9.57;100.00
8627;BME280;4351;51.422;6.794;2023-02-16T13:19:43;102123.31;;;9.60;100.00
8627;BME280;4351;51.422;6.794;2023-02-16T13:22:30;102120.91;;;9.77;100.00
8627;BME280;4351;51.422;6.794;2023-02-16T13:25:37;102125.63;;;9.71;100.00
8627;BME280;4351;51.422;6.794;2023-02-16T13:28:26;102117.00;;;9.61;100.00
8627;BME280;4351;51.422;6.794;2023-02-16T13:31:09;102103.38;;;9.91;100.00
8627;BME280;4351;51.422;6.794;2023-02-16T13:33:54;102101.97;;;9.79;100.00
8627;BME280;4351;51.422;6.794;2023-02-16T13:36:43;102100.38;;;9.99;100.00
8627;BME280;4351;51.422;6.794;2023-02-16T13:39:39;102094.06;;;10.00;100.00
8627;BME280;4351;51.422;6.794;2023-02-16T13:42:35;102090.59;;;9.71;100.00
8627;BME280;4351;51.422;6.794;2023-02-16T13:45:13;102095.09;;;9.70;100.00
8627;BME280;4351;51.422;6.794;2023-02-16T13:47:43;102085.50;;;9.63;100.00